Melissa RD121's Hourly Summary for Thursday, July 5, 2018
Hour Temp
(f)
RH
(%)
Solar Rad.
(MJ/m2)
Rainfall
(in)
Wind
(mph)
7/5/2018 12:00 AM 78 73 0 0 0
7/5/2018 1:00 AM 77 77 0 0 0
7/5/2018 2:00 AM 75 79 0 0 0
7/5/2018 3:00 AM 73 82 0 0 0
7/5/2018 4:00 AM 73 86 0 0 0
7/5/2018 5:00 AM 73 86 0 0 0
7/5/2018 6:00 AM 72 87 0.04 0 0
7/5/2018 7:00 AM 74 77 0.33 0 0
7/5/2018 8:00 AM 79 70 1.1 0 0
7/5/2018 9:00 AM 81 66 1.64 0 0.01
7/5/2018 10:00 AM 84 57 2.34 0 0.27
7/5/2018 11:00 AM 87 51 2.84 0 0.5
7/5/2018 12:00 PM 89 48 2.85 0 1.99
7/5/2018 1:00 PM 90 44 2.81 0 2.64
7/5/2018 2:00 PM 92 40 2.71 0 2.4
7/5/2018 3:00 PM 92 41 2.1 0 2.02
7/5/2018 4:00 PM 93 40 1.63 0 2.29
7/5/2018 5:00 PM 92 43 0.88 0 5.53
7/5/2018 6:00 PM 90 43 0.5 0 8.96
7/5/2018 7:00 PM 87 51 0.26 0 3.28
7/5/2018 8:00 PM 85 58 0.06 0 0.65
7/5/2018 9:00 PM 83 63 0 0 0.15
7/5/2018 10:00 PM 82 66 0 0 0.27
7/5/2018 11:00 PM 80 72 0 0 0
Data Summary 82 62 22.09 0.00 1.29